createdAt,value
2023-05-09T00:00:45.312Z,7.70
2023-05-09T00:01:45.535Z,6.60
2023-05-09T00:02:45.673Z,5.60
2023-05-09T00:03:45.850Z,6.70
2023-05-09T00:04:46.138Z,6.20
2023-05-09T00:05:46.241Z,6.30
2023-05-09T00:06:46.375Z,6.40
2023-05-09T00:07:46.524Z,6.70
2023-05-09T00:08:46.700Z,6.50
2023-05-09T00:09:46.906Z,7.10
2023-05-09T00:10:47.055Z,6.80
2023-05-09T00:11:47.215Z,6.80
2023-05-09T00:12:47.426Z,6.20
2023-05-09T00:13:47.548Z,6.80
2023-05-09T00:14:47.755Z,7.50
2023-05-09T00:15:47.905Z,6.60
2023-05-09T00:16:48.092Z,5.90
2023-05-09T00:17:48.273Z,9.00
2023-05-09T00:18:48.425Z,5.90
2023-05-09T00:19:48.610Z,7.10
2023-05-09T00:20:48.777Z,6.40
2023-05-09T00:21:48.927Z,6.10
2023-05-09T00:22:49.130Z,5.90
2023-05-09T00:23:49.323Z,7.10
2023-05-09T00:24:49.496Z,7.40
2023-05-09T00:25:49.637Z,6.50
2023-05-09T00:26:49.820Z,6.70
2023-05-09T00:27:50.020Z,6.10
2023-05-09T00:28:50.183Z,6.60
2023-05-09T00:29:50.356Z,7.10
2023-05-09T00:30:50.565Z,7.50
2023-05-09T00:31:50.751Z,5.70
2023-05-09T00:32:50.982Z,6.30
2023-05-09T00:33:51.048Z,6.40
2023-05-09T00:34:51.246Z,6.10
2023-05-09T00:35:51.428Z,7.10
2023-05-09T00:36:51.558Z,6.20
2023-05-09T00:37:51.776Z,6.80
2023-05-09T00:38:51.918Z,6.10
2023-05-09T00:39:52.101Z,7.30
2023-05-09T00:40:52.275Z,7.90
2023-05-09T00:41:52.490Z,7.60
2023-05-09T00:42:52.665Z,7.60
2023-05-09T00:43:52.821Z,7.00
2023-05-09T00:44:53.003Z,6.90
2023-05-09T00:45:53.175Z,5.80
2023-05-09T00:46:53.315Z,6.50
2023-05-09T00:47:53.487Z,7.00
2023-05-09T00:48:53.660Z,6.40
2023-05-09T00:49:53.821Z,6.40
2023-05-09T00:50:54.035Z,6.50
2023-05-09T00:51:54.216Z,7.50
2023-05-09T00:52:54.359Z,5.90
2023-05-09T00:53:54.535Z,6.70
2023-05-09T00:54:54.709Z,6.30
2023-05-09T00:55:54.910Z,7.00
2023-05-09T00:56:55.063Z,6.20
2023-05-09T00:57:55.214Z,6.00
2023-05-09T00:58:55.397Z,6.90
2023-05-09T00:59:55.566Z,6.10
2023-05-09T01:00:55.790Z,6.90
2023-05-09T01:01:55.927Z,7.40
2023-05-09T01:02:56.197Z,6.80
2023-05-09T01:03:56.307Z,8.30
2023-05-09T01:04:56.451Z,6.10
2023-05-09T01:05:56.633Z,6.50
2023-05-09T01:06:56.779Z,6.20
2023-05-09T01:07:56.974Z,7.30
2023-05-09T01:08:57.151Z,6.50
2023-05-09T01:09:57.338Z,6.80
2023-05-09T01:10:57.542Z,7.10
2023-05-09T01:11:57.684Z,6.90
2023-05-09T01:12:57.937Z,7.40
2023-05-09T01:13:58.057Z,6.70
2023-05-09T01:14:58.244Z,9.50
2023-05-09T01:15:58.452Z,6.90
2023-05-09T01:16:58.579Z,6.80
2023-05-09T01:17:58.771Z,5.70
2023-05-09T01:18:58.892Z,7.20
2023-05-09T01:19:59.062Z,5.60
2023-05-09T01:20:59.259Z,6.40
2023-05-09T01:21:59.419Z,6.90
2023-05-09T01:22:59.576Z,6.90
2023-05-09T01:23:59.765Z,7.30
2023-05-09T01:24:59.955Z,5.20
2023-05-09T01:26:00.136Z,5.00
2023-05-09T01:27:00.275Z,6.60
2023-05-09T01:28:00.471Z,6.90
2023-05-09T01:29:00.646Z,6.90
2023-05-09T01:30:00.850Z,7.10
2023-05-09T01:31:01.053Z,7.70
2023-05-09T01:32:01.177Z,6.70
2023-05-09T01:33:01.376Z,5.90
2023-05-09T01:34:01.574Z,7.60
2023-05-09T01:35:01.709Z,5.40
2023-05-09T01:36:01.902Z,6.90
2023-05-09T01:37:02.116Z,6.10
2023-05-09T01:38:02.291Z,5.50
2023-05-09T01:39:02.449Z,7.10
2023-05-09T01:40:02.616Z,6.20
2023-05-09T01:41:02.817Z,5.50
2023-05-09T01:42:02.986Z,6.50
2023-05-09T01:43:03.141Z,5.90
2023-05-09T01:44:03.381Z,5.90
2023-05-09T01:45:03.547Z,6.00
2023-05-09T01:46:03.667Z,6.50
2023-05-09T01:47:03.842Z,6.30
2023-05-09T01:48:04.103Z,6.20
2023-05-09T01:49:04.229Z,6.00
2023-05-09T01:50:04.399Z,6.00
2023-05-09T01:51:04.534Z,6.90
2023-05-09T01:52:04.718Z,6.30
2023-05-09T01:53:04.921Z,5.70
2023-05-09T01:54:05.083Z,6.10
2023-05-09T01:55:05.318Z,6.10
2023-05-09T01:56:05.400Z,5.70
2023-05-09T01:57:05.590Z,6.60
2023-05-09T01:58:05.856Z,5.80
2023-05-09T01:59:05.917Z,6.80
2023-05-09T02:00:06.130Z,6.10
2023-05-09T02:01:06.291Z,6.00
2023-05-09T02:02:06.425Z,6.50
2023-05-09T02:03:06.670Z,6.90
2023-05-09T02:04:06.777Z,5.90
2023-05-09T02:05:06.959Z,5.50
2023-05-09T02:06:07.133Z,5.90
2023-05-09T02:07:07.335Z,6.10
2023-05-09T02:08:07.518Z,6.70
2023-05-09T02:09:07.696Z,6.20
2023-05-09T02:10:07.875Z,6.50
2023-05-09T02:11:08.058Z,7.00
2023-05-09T02:12:08.268Z,7.30
2023-05-09T02:13:08.464Z,6.30
2023-05-09T02:14:08.595Z,6.00
2023-05-09T02:15:08.777Z,5.70
2023-05-09T02:16:08.996Z,6.40
2023-05-09T02:17:09.124Z,5.40
2023-05-09T02:18:09.283Z,5.50
2023-05-09T02:19:09.442Z,5.90
2023-05-09T02:20:09.640Z,6.40
2023-05-09T02:21:09.925Z,5.90
2023-05-09T02:22:09.993Z,5.90
2023-05-09T02:23:10.148Z,5.70
2023-05-09T02:24:10.309Z,6.80
2023-05-09T02:25:10.499Z,5.70
2023-05-09T02:26:10.688Z,5.60
2023-05-09T02:27:10.886Z,5.70
2023-05-09T02:28:11.024Z,7.00
2023-05-09T02:29:11.213Z,4.90
2023-05-09T02:30:11.360Z,5.80
2023-05-09T02:31:11.585Z,5.60
2023-05-09T02:32:11.761Z,6.00
2023-05-09T02:33:11.946Z,5.80
2023-05-09T02:34:12.043Z,5.80
2023-05-09T02:35:12.389Z,5.60
2023-05-09T02:36:12.433Z,5.50
2023-05-09T02:37:12.582Z,6.30
2023-05-09T02:38:12.759Z,5.80
2023-05-09T02:39:12.966Z,6.40
2023-05-09T02:40:13.099Z,5.50
2023-05-09T02:41:13.301Z,6.00
2023-05-09T02:42:13.431Z,5.40
2023-05-09T02:43:13.643Z,6.10
2023-05-09T02:44:13.799Z,5.80
2023-05-09T02:45:14.180Z,5.60
2023-05-09T02:46:14.155Z,6.00
2023-05-09T02:47:14.285Z,6.30
2023-05-09T02:48:14.488Z,6.10
2023-05-09T02:49:26.752Z,7.20
2023-05-09T02:50:15.830Z,6.00
2023-05-09T02:51:14.998Z,5.80
2023-05-09T02:52:15.189Z,6.40
2023-05-09T02:53:15.331Z,5.30
2023-05-09T02:54:15.497Z,6.50
2023-05-09T02:55:16.143Z,5.40
2023-05-09T02:56:15.831Z,5.90
2023-05-09T02:57:16.020Z,6.10
2023-05-09T02:58:16.192Z,6.40
2023-05-09T02:59:16.405Z,5.80
2023-05-09T03:00:16.543Z,6.20
2023-05-09T03:01:16.793Z,6.10
2023-05-09T03:02:16.892Z,6.00
2023-05-09T03:03:17.209Z,6.00
2023-05-09T03:04:17.256Z,5.40
2023-05-09T03:05:17.407Z,5.40
2023-05-09T03:06:17.602Z,6.70
2023-05-09T03:07:17.778Z,5.90
2023-05-09T03:08:17.969Z,5.50
2023-05-09T03:09:18.151Z,6.50
2023-05-09T03:10:18.305Z,6.10
2023-05-09T03:11:18.505Z,6.10
2023-05-09T03:12:18.639Z,6.40
2023-05-09T03:13:18.888Z,6.40
2023-05-09T03:14:18.991Z,5.90
2023-05-09T03:15:19.200Z,6.60
2023-05-09T03:16:19.365Z,5.90
2023-05-09T03:17:19.521Z,5.80
2023-05-09T03:18:19.717Z,5.40
2023-05-09T03:19:19.922Z,6.30
2023-05-09T03:20:20.048Z,7.70
2023-05-09T03:21:20.239Z,6.70
2023-05-09T03:22:20.439Z,6.20
2023-05-09T03:23:20.586Z,5.30
2023-05-09T03:24:20.747Z,6.80
2023-05-09T03:25:20.935Z,5.30
2023-05-09T03:26:21.088Z,6.70
2023-05-09T03:27:21.239Z,5.70
2023-05-09T03:28:21.425Z,6.70
2023-05-09T03:29:21.605Z,6.20
2023-05-09T03:30:21.782Z,6.70
2023-05-09T03:31:21.981Z,6.30
2023-05-09T03:32:22.271Z,5.60
2023-05-09T03:33:22.312Z,7.50
2023-05-09T03:34:22.478Z,5.30
2023-05-09T03:35:22.629Z,7.20
2023-05-09T03:36:22.793Z,5.50
2023-05-09T03:37:24.346Z,5.50
2023-05-09T03:38:23.155Z,5.50
2023-05-09T03:39:23.313Z,6.40
2023-05-09T03:40:23.510Z,5.90
2023-05-09T03:41:23.655Z,5.90
2023-05-09T03:42:23.809Z,5.70
2023-05-09T03:43:24.014Z,6.80
2023-05-09T03:44:24.156Z,5.50
2023-05-09T03:45:24.315Z,5.70
2023-05-09T03:46:24.499Z,5.80
2023-05-09T03:47:24.660Z,6.70
2023-05-09T03:48:24.860Z,5.00
2023-05-09T03:49:25.033Z,5.70
2023-05-09T03:50:25.146Z,5.60
2023-05-09T03:51:25.353Z,6.70
2023-05-09T03:52:25.529Z,6.50
2023-05-09T03:53:25.722Z,5.50
2023-05-09T03:54:26.022Z,6.50
2023-05-09T03:55:26.081Z,5.30
2023-05-09T03:56:26.245Z,6.10
2023-05-09T03:57:26.410Z,6.10
2023-05-09T03:58:26.608Z,5.50
2023-05-09T03:59:26.828Z,5.90
2023-05-09T04:00:26.929Z,6.10
2023-05-09T04:01:27.130Z,6.70
2023-05-09T04:02:27.374Z,5.90
2023-05-09T04:03:27.602Z,5.90
2023-05-09T04:04:27.659Z,6.20
2023-05-09T04:05:27.839Z,5.20
2023-05-09T04:06:28.015Z,5.80
2023-05-09T04:07:28.235Z,6.80
2023-05-09T04:08:28.394Z,5.90
2023-05-09T04:09:28.534Z,5.40
2023-05-09T04:10:28.674Z,5.20
2023-05-09T04:11:28.882Z,6.10
2023-05-09T04:12:29.048Z,6.20
2023-05-09T04:13:29.272Z,5.60
2023-05-09T04:14:29.387Z,5.40
2023-05-09T04:15:29.527Z,6.40
2023-05-09T04:16:29.742Z,6.40
2023-05-09T04:17:29.932Z,6.10
2023-05-09T04:18:30.052Z,6.70
2023-05-09T04:19:30.269Z,6.70
2023-05-09T04:20:30.410Z,6.40
2023-05-09T04:21:30.586Z,6.10
2023-05-09T04:22:30.747Z,6.10
2023-05-09T04:23:30.945Z,6.40
2023-05-09T04:24:31.137Z,6.30
2023-05-09T04:25:31.325Z,5.80
2023-05-09T04:26:31.475Z,5.60
2023-05-09T04:27:31.657Z,6.80
2023-05-09T04:28:31.851Z,5.60
2023-05-09T04:29:32.048Z,5.20
2023-05-09T04:30:32.256Z,5.70
2023-05-09T04:31:32.444Z,5.70
2023-05-09T04:32:32.603Z,6.20
2023-05-09T04:33:32.753Z,5.80
2023-05-09T04:34:32.915Z,7.50
2023-05-09T04:35:33.087Z,6.20
2023-05-09T04:36:33.258Z,6.50
2023-05-09T04:37:33.466Z,5.80
2023-05-09T04:38:33.609Z,5.80
2023-05-09T04:39:33.845Z,6.10
2023-05-09T04:40:33.996Z,5.60
2023-05-09T04:41:34.154Z,6.40
2023-05-09T04:42:34.330Z,6.20
2023-05-09T04:43:34.497Z,7.10
2023-05-09T04:44:34.663Z,6.20
2023-05-09T04:45:34.851Z,5.40
2023-05-09T04:46:35.046Z,7.30
2023-05-09T04:47:35.226Z,6.30
2023-05-09T04:48:35.345Z,6.40
2023-05-09T04:49:35.523Z,6.90
2023-05-09T04:50:35.680Z,6.10
2023-05-09T04:51:35.876Z,5.10
2023-05-09T04:52:36.017Z,6.50
2023-05-09T04:53:36.286Z,6.10
2023-05-09T04:54:36.403Z,5.90
2023-05-09T04:55:36.498Z,6.20
2023-05-09T04:56:36.692Z,8.20
2023-05-09T04:57:36.853Z,8.20
2023-05-09T04:58:37.020Z,6.40
2023-05-09T04:59:37.230Z,6.50
2023-05-09T05:00:37.371Z,5.10
2023-05-09T05:01:37.569Z,6.80
2023-05-09T05:02:37.778Z,6.50
2023-05-09T05:03:37.875Z,6.40
2023-05-09T05:04:38.123Z,6.60
2023-05-09T05:05:38.413Z,6.00
2023-05-09T05:06:38.379Z,6.70
2023-05-09T05:07:38.578Z,5.80
2023-05-09T05:08:38.737Z,6.40
2023-05-09T05:09:38.919Z,7.70
2023-05-09T05:10:39.134Z,6.70
2023-05-09T05:11:40.365Z,6.40
2023-05-09T05:12:39.473Z,6.40
2023-05-09T05:13:39.629Z,6.10
2023-05-09T05:14:39.795Z,6.20
2023-05-09T05:15:39.985Z,6.40
2023-05-09T05:16:40.156Z,6.80
2023-05-09T05:17:40.309Z,6.40
2023-05-09T05:18:40.435Z,7.20
2023-05-09T05:19:40.589Z,6.60
2023-05-09T05:20:40.786Z,6.40
2023-05-09T05:21:40.935Z,7.80
2023-05-09T05:22:41.112Z,8.40
2023-05-09T05:23:41.275Z,6.00
2023-05-09T05:24:41.466Z,5.30
2023-05-09T05:25:41.623Z,6.30
2023-05-09T05:26:41.798Z,5.70
2023-05-09T05:27:41.985Z,6.90
2023-05-09T05:28:42.145Z,6.40
2023-05-09T05:29:42.306Z,5.80
2023-05-09T05:30:42.505Z,6.00
2023-05-09T05:31:42.699Z,6.10
2023-05-09T05:32:42.821Z,5.70
2023-05-09T05:33:42.981Z,7.20
2023-05-09T05:34:43.177Z,6.70
2023-05-09T05:35:43.329Z,6.00
2023-05-09T05:36:43.505Z,6.30
2023-05-09T05:37:43.692Z,6.20
2023-05-09T05:38:43.811Z,7.10
2023-05-09T05:39:44.026Z,6.10
2023-05-09T05:40:44.124Z,6.40
2023-05-09T05:41:44.315Z,6.40
2023-05-09T05:42:44.636Z,6.50
2023-05-09T05:43:44.676Z,6.30
2023-05-09T05:44:44.854Z,6.10
2023-05-09T05:45:45.012Z,6.00
2023-05-09T05:46:45.153Z,6.50
2023-05-09T05:47:45.350Z,5.80
2023-05-09T05:48:45.477Z,6.80
2023-05-09T05:49:45.658Z,6.10
2023-05-09T05:50:45.857Z,5.60
2023-05-09T05:51:45.980Z,6.10
2023-05-09T05:52:46.194Z,6.40
2023-05-09T05:53:46.328Z,5.70
2023-05-09T05:54:46.552Z,5.40
2023-05-09T05:55:46.680Z,6.60
2023-05-09T05:56:46.870Z,6.80
2023-05-09T05:57:47.042Z,5.90
2023-05-09T05:58:47.201Z,5.80
2023-05-09T05:59:47.391Z,6.90
2023-05-09T06:00:47.548Z,6.60
2023-05-09T06:01:47.768Z,6.60
2023-05-09T06:02:48.231Z,6.60
2023-05-09T06:03:48.154Z,8.80
2023-05-09T06:04:48.233Z,6.30
2023-05-09T06:05:48.400Z,6.00
2023-05-09T06:06:48.588Z,6.50
2023-05-09T06:07:48.760Z,7.10
2023-05-09T06:08:48.943Z,6.20
2023-05-09T06:09:49.095Z,6.00
2023-05-09T06:10:49.280Z,5.70
2023-05-09T06:11:49.429Z,6.00
2023-05-09T06:12:49.723Z,7.20
2023-05-09T06:13:49.770Z,8.50
2023-05-09T06:14:49.973Z,6.10
2023-05-09T06:15:50.119Z,6.40
2023-05-09T06:16:50.371Z,6.20
2023-05-09T06:17:50.527Z,6.50
2023-05-09T06:18:50.942Z,6.80
2023-05-09T06:19:50.808Z,5.80
2023-05-09T06:20:50.982Z,6.00
2023-05-09T06:21:51.145Z,6.30
2023-05-09T06:22:51.311Z,6.30
2023-05-09T06:24:07.768Z,5.50
2023-05-09T06:24:52.689Z,7.60
2023-05-09T06:25:51.816Z,6.00
2023-05-09T06:26:52.029Z,6.40
2023-05-09T06:27:52.195Z,6.70
2023-05-09T06:28:52.405Z,6.30
2023-05-09T06:29:52.577Z,7.00
2023-05-09T06:30:52.750Z,7.40
2023-05-09T06:31:52.967Z,5.10
2023-05-09T06:32:53.270Z,5.90
2023-05-09T06:33:53.290Z,6.10
2023-05-09T06:34:53.478Z,7.40
2023-05-09T06:35:53.648Z,6.40
2023-05-09T06:36:53.830Z,7.00
2023-05-09T06:37:53.949Z,7.60
2023-05-09T06:38:54.172Z,7.00
2023-05-09T06:39:54.368Z,6.60
2023-05-09T06:40:54.482Z,5.60
2023-05-09T06:41:54.636Z,6.10
2023-05-09T06:42:54.816Z,6.00
2023-05-09T06:43:55.016Z,6.20
2023-05-09T06:44:55.206Z,7.00
2023-05-09T06:45:55.342Z,6.50
2023-05-09T06:46:55.513Z,6.40
2023-05-09T06:47:55.724Z,5.80
2023-05-09T06:48:55.868Z,6.20
2023-05-09T06:49:56.086Z,6.20
2023-05-09T06:50:56.245Z,7.80
2023-05-09T06:51:56.393Z,8.80
2023-05-09T06:52:56.569Z,8.10
2023-05-09T06:53:56.718Z,7.90
2023-05-09T06:54:56.889Z,7.00
2023-05-09T06:55:57.044Z,5.50
2023-05-09T06:56:57.226Z,6.70
2023-05-09T06:57:57.387Z,4.80
2023-05-09T06:58:57.554Z,5.40
2023-05-09T06:59:57.728Z,5.60
2023-05-09T07:00:57.899Z,7.10
2023-05-09T07:01:58.218Z,6.30
2023-05-09T07:02:58.272Z,6.40
2023-05-09T07:03:58.453Z,6.50
2023-05-09T07:04:58.631Z,5.30
2023-05-09T07:05:58.760Z,5.60
2023-05-09T07:06:58.952Z,4.50
2023-05-09T07:07:59.081Z,6.40
2023-05-09T07:08:59.269Z,5.70
2023-05-09T07:10:10.469Z,5.60
2023-05-09T07:11:00.609Z,6.70
2023-05-09T07:11:59.867Z,5.00
2023-05-09T07:13:00.033Z,6.20
2023-05-09T07:14:00.138Z,5.50
2023-05-09T07:15:00.308Z,6.00
2023-05-09T07:16:00.503Z,5.80
2023-05-09T07:17:18.279Z,5.70
2023-05-09T07:18:01.826Z,5.00
2023-05-09T07:19:00.972Z,6.30
2023-05-09T07:20:01.148Z,6.10
2023-05-09T07:21:01.295Z,4.80
2023-05-09T07:22:01.450Z,6.30
2023-05-09T07:23:01.732Z,6.90
2023-05-09T07:24:01.789Z,6.10
2023-05-09T07:25:01.982Z,7.80
2023-05-09T07:26:02.127Z,5.50
2023-05-09T07:27:02.318Z,5.60
2023-05-09T07:28:02.505Z,5.60
2023-05-09T07:29:02.678Z,7.00
2023-05-09T07:30:02.875Z,5.70
2023-05-09T07:31:03.008Z,5.10
2023-05-09T07:32:03.231Z,6.10
2023-05-09T07:33:03.420Z,5.80
2023-05-09T07:34:03.582Z,5.50
2023-05-09T07:35:03.742Z,5.60
2023-05-09T07:36:03.949Z,5.40
2023-05-09T07:37:04.095Z,5.90
2023-05-09T07:38:04.243Z,6.90
2023-05-09T07:39:04.420Z,6.20
2023-05-09T07:40:04.577Z,5.70
2023-05-09T07:41:04.748Z,5.00
2023-05-09T07:42:04.893Z,5.10
2023-05-09T07:43:05.058Z,5.50
2023-05-09T07:44:05.229Z,4.80
2023-05-09T07:45:05.381Z,4.70
2023-05-09T07:46:05.663Z,5.20
2023-05-09T07:47:05.731Z,5.00
2023-05-09T07:48:05.938Z,4.50
2023-05-09T07:49:06.062Z,4.50
2023-05-09T07:50:06.253Z,5.40
2023-05-09T07:51:06.403Z,4.50
2023-05-09T07:52:06.598Z,6.00
2023-05-09T07:53:06.801Z,5.40
2023-05-09T07:54:06.914Z,5.50
2023-05-09T07:55:07.087Z,5.40
2023-05-09T07:56:07.301Z,7.40
2023-05-09T07:57:07.436Z,5.00
2023-05-09T07:58:07.580Z,5.50
2023-05-09T07:59:07.790Z,5.90
2023-05-09T08:00:07.957Z,6.00
2023-05-09T08:01:08.178Z,5.40
2023-05-09T08:02:08.292Z,6.10
2023-05-09T08:03:08.683Z,4.00
2023-05-09T08:04:08.760Z,6.40
2023-05-09T08:05:08.842Z,6.00
2023-05-09T08:06:09.015Z,5.10
2023-05-09T08:07:09.251Z,5.00
2023-05-09T08:08:09.351Z,5.00
2023-05-09T08:09:09.518Z,5.90
2023-05-09T08:10:09.702Z,5.00
2023-05-09T08:11:09.914Z,6.90
2023-05-09T08:12:10.034Z,5.60
2023-05-09T08:13:10.245Z,5.00
2023-05-09T08:14:10.401Z,5.90
2023-05-09T08:15:10.598Z,6.30
2023-05-09T08:16:10.745Z,5.90
2023-05-09T08:17:10.924Z,6.00
2023-05-09T08:18:11.151Z,6.80
2023-05-09T08:19:11.297Z,7.10
2023-05-09T08:20:11.437Z,5.20
2023-05-09T08:21:11.587Z,5.50
2023-05-09T08:22:11.733Z,6.00
2023-05-09T08:23:11.911Z,5.00
2023-05-09T08:24:12.071Z,5.70
2023-05-09T08:25:12.339Z,6.00
2023-05-09T08:26:12.428Z,6.80
2023-05-09T08:27:12.660Z,6.60
2023-05-09T08:28:12.733Z,7.20
2023-05-09T08:29:12.928Z,5.30
2023-05-09T08:30:13.072Z,3.80
2023-05-09T08:31:13.297Z,6.60
2023-05-09T08:32:13.460Z,6.10
2023-05-09T08:33:13.717Z,5.80
2023-05-09T08:34:13.801Z,5.70
2023-05-09T08:35:14.270Z,6.30
2023-05-09T08:36:14.143Z,5.40
2023-05-09T08:37:15.504Z,7.00
2023-05-09T08:38:14.582Z,5.00
2023-05-09T08:39:14.692Z,5.30
2023-05-09T08:40:15.060Z,5.60
2023-05-09T08:41:15.081Z,4.80
2023-05-09T08:42:15.246Z,5.40
2023-05-09T08:43:15.427Z,5.30
2023-05-09T08:44:15.616Z,6.30
2023-05-09T08:45:15.760Z,5.90
2023-05-09T08:46:15.946Z,5.70
2023-05-09T08:47:16.089Z,5.80
2023-05-09T08:48:16.248Z,6.30
2023-05-09T08:49:16.438Z,5.50
2023-05-09T08:50:16.852Z,5.60
2023-05-09T08:51:16.749Z,6.30
2023-05-09T08:52:16.919Z,5.10
2023-05-09T08:53:17.086Z,4.10
2023-05-09T08:54:17.245Z,6.20
2023-05-09T08:55:17.420Z,4.80
2023-05-09T08:56:17.576Z,5.80
2023-05-09T08:57:17.768Z,5.30
2023-05-09T08:58:17.926Z,6.40
2023-05-09T08:59:18.109Z,5.40
2023-05-09T09:00:20.393Z,6.10
2023-05-09T09:01:18.407Z,5.10
2023-05-09T09:02:18.576Z,5.70
2023-05-09T09:03:18.750Z,5.80
2023-05-09T09:04:19.012Z,5.50
2023-05-09T09:05:39.582Z,6.20
2023-05-09T09:06:20.314Z,4.60
2023-05-09T09:07:19.437Z,4.40
2023-05-09T09:08:19.596Z,5.80
2023-05-09T09:09:19.794Z,4.80
2023-05-09T09:10:20.056Z,5.30
2023-05-09T09:11:20.131Z,4.50
2023-05-09T09:12:20.275Z,5.60
2023-05-09T09:13:20.537Z,4.90
2023-05-09T09:14:20.630Z,4.80
2023-05-09T09:15:20.818Z,5.10
2023-05-09T09:16:21.076Z,4.30
2023-05-09T09:17:21.159Z,5.70
2023-05-09T09:18:21.315Z,4.60
2023-05-09T09:19:21.494Z,4.80
2023-05-09T09:20:21.630Z,4.60
2023-05-09T09:21:21.808Z,4.80
2023-05-09T09:22:22.042Z,6.00
2023-05-09T09:23:22.165Z,4.90
2023-05-09T09:24:22.371Z,5.90
2023-05-09T09:25:22.523Z,4.60
2023-05-09T09:26:22.729Z,5.30
2023-05-09T09:27:22.939Z,5.60
2023-05-09T09:28:23.048Z,4.90
2023-05-09T09:29:23.260Z,5.60
2023-05-09T09:30:23.408Z,5.80
2023-05-09T09:31:23.631Z,3.80
2023-05-09T09:32:23.761Z,4.90
2023-05-09T09:33:23.972Z,4.40
2023-05-09T09:34:24.141Z,4.90
2023-05-09T09:35:24.311Z,4.50
2023-05-09T09:36:24.453Z,5.10
2023-05-09T09:37:24.626Z,4.10
2023-05-09T09:38:24.781Z,5.20
2023-05-09T09:39:24.975Z,4.40
2023-05-09T09:40:25.111Z,4.60
2023-05-09T09:41:25.297Z,4.50
2023-05-09T09:42:25.470Z,4.20
2023-05-09T09:43:25.645Z,4.90
2023-05-09T09:44:25.816Z,4.40
2023-05-09T09:45:26.034Z,5.00
2023-05-09T09:46:26.208Z,4.30
2023-05-09T09:47:26.384Z,4.80
2023-05-09T09:48:26.522Z,3.50
2023-05-09T09:49:26.683Z,4.20
2023-05-09T09:50:26.876Z,3.60
2023-05-09T09:51:27.007Z,4.50
2023-05-09T09:52:27.190Z,4.70
2023-05-09T09:53:27.352Z,4.70
2023-05-09T09:54:27.634Z,5.20
2023-05-09T09:55:27.714Z,4.40
2023-05-09T09:56:27.869Z,4.20
2023-05-09T09:57:28.086Z,5.00
2023-05-09T09:58:28.286Z,4.60
2023-05-09T09:59:28.415Z,4.30
2023-05-09T10:00:28.581Z,3.50
2023-05-09T10:01:28.804Z,5.00
2023-05-09T10:02:29.052Z,3.60
2023-05-09T10:03:29.120Z,4.40
2023-05-09T10:04:29.235Z,4.50
2023-05-09T10:05:29.410Z,4.50
2023-05-09T10:06:29.575Z,3.70
2023-05-09T10:07:29.775Z,4.60
2023-05-09T10:08:29.963Z,4.50
2023-05-09T10:09:30.109Z,5.50
2023-05-09T10:10:30.299Z,4.00
2023-05-09T10:11:30.454Z,5.00
2023-05-09T10:12:30.617Z,5.00
2023-05-09T10:13:30.859Z,4.50
2023-05-09T10:14:32.026Z,3.70
2023-05-09T10:15:38.506Z,4.80
2023-05-09T10:16:43.111Z,4.10
2023-05-09T10:17:32.693Z,3.80
2023-05-09T10:18:31.963Z,5.30
2023-05-09T10:19:31.852Z,4.80
2023-05-09T10:20:31.979Z,4.00
2023-05-09T10:21:32.162Z,3.20
2023-05-09T10:22:32.342Z,4.70
2023-05-09T10:23:32.557Z,4.40
2023-05-09T10:24:32.708Z,3.80
2023-05-09T10:25:32.862Z,3.90
2023-05-09T10:26:33.042Z,4.80
2023-05-09T10:27:33.226Z,4.80
2023-05-09T10:28:33.441Z,4.10
2023-05-09T10:29:33.587Z,4.70
2023-05-09T10:30:34.216Z,4.90
2023-05-09T10:31:33.997Z,5.00
2023-05-09T10:32:34.129Z,4.00
2023-05-09T10:33:34.262Z,3.70
2023-05-09T10:34:34.414Z,4.90
2023-05-09T10:35:34.578Z,3.50
2023-05-09T10:36:34.741Z,4.50
2023-05-09T10:37:34.951Z,4.20
2023-05-09T10:38:35.091Z,4.20
2023-05-09T10:39:35.290Z,4.70
2023-05-09T10:40:35.486Z,3.60
2023-05-09T10:41:35.646Z,4.50
2023-05-09T10:42:35.803Z,4.60
2023-05-09T10:43:36.811Z,3.90
2023-05-09T10:44:36.122Z,3.20
2023-05-09T10:45:36.292Z,4.90
2023-05-09T10:46:36.574Z,4.50
2023-05-09T10:47:36.724Z,4.80
2023-05-09T10:48:36.843Z,4.20
2023-05-09T10:49:37.372Z,5.00
2023-05-09T10:50:37.143Z,4.30
2023-05-09T10:51:37.315Z,4.50
2023-05-09T10:52:37.477Z,4.60
2023-05-09T10:53:37.656Z,4.40
2023-05-09T10:54:37.823Z,4.70
2023-05-09T10:55:37.994Z,4.60
2023-05-09T10:56:38.155Z,3.90
2023-05-09T10:57:38.332Z,3.70
2023-05-09T10:58:38.562Z,3.80
2023-05-09T10:59:38.660Z,6.00
2023-05-09T11:00:38.832Z,4.30
2023-05-09T11:01:39.239Z,3.50
2023-05-09T11:02:39.213Z,4.00
2023-05-09T11:03:39.355Z,4.20
2023-05-09T11:04:39.566Z,3.80
2023-05-09T11:05:39.647Z,3.60
2023-05-09T11:06:39.838Z,4.40
2023-05-09T11:07:40.012Z,3.80
2023-05-09T11:08:40.150Z,5.00
2023-05-09T11:09:40.336Z,4.20
2023-05-09T11:10:40.486Z,4.60
2023-05-09T11:11:40.649Z,3.90
2023-05-09T11:12:40.863Z,2.70
2023-05-09T11:13:41.024Z,3.50
2023-05-09T11:14:41.188Z,4.90
2023-05-09T11:15:41.320Z,4.60
2023-05-09T11:16:41.541Z,4.80
2023-05-09T11:17:41.721Z,4.10
2023-05-09T11:18:41.861Z,3.10
2023-05-09T11:19:41.998Z,4.50
2023-05-09T11:20:42.181Z,3.70
2023-05-09T11:21:42.350Z,3.60
2023-05-09T11:22:42.532Z,4.30
2023-05-09T11:23:42.709Z,4.50
2023-05-09T11:24:42.842Z,4.10
2023-05-09T11:25:43.011Z,5.20
2023-05-09T11:26:43.183Z,4.30
2023-05-09T11:27:43.388Z,3.60
2023-05-09T11:28:43.559Z,3.60
2023-05-09T11:29:43.706Z,3.40
2023-05-09T11:30:43.963Z,3.90
2023-05-09T11:31:44.095Z,4.30
2023-05-09T11:32:44.358Z,4.00
2023-05-09T11:33:44.399Z,3.90
2023-05-09T11:34:44.589Z,4.30
2023-05-09T11:35:44.736Z,4.40
2023-05-09T11:36:44.911Z,4.00
2023-05-09T11:37:45.105Z,4.20
2023-05-09T11:38:45.265Z,4.20
2023-05-09T11:39:45.413Z,4.20
2023-05-09T11:40:45.575Z,4.40
2023-05-09T11:41:45.790Z,4.20
2023-05-09T11:42:45.967Z,4.40
2023-05-09T11:43:46.112Z,4.50
2023-05-09T11:44:46.312Z,4.00
2023-05-09T11:45:46.542Z,4.80
2023-05-09T11:46:46.625Z,4.20
2023-05-09T11:47:46.823Z,3.40
2023-05-09T11:48:46.949Z,4.10
2023-05-09T11:49:47.082Z,3.50
2023-05-09T11:50:47.284Z,4.30
2023-05-09T11:51:47.418Z,5.20
2023-05-09T11:52:47.608Z,4.00
2023-05-09T11:53:47.762Z,3.50
2023-05-09T11:54:47.948Z,4.80
2023-05-09T11:55:48.082Z,4.40
2023-05-09T11:56:48.259Z,4.00
2023-05-09T11:57:48.437Z,4.80
2023-05-09T11:58:48.585Z,3.50
2023-05-09T11:59:48.773Z,3.70
2023-05-09T12:00:48.935Z,5.30
2023-05-09T12:01:49.128Z,3.60
2023-05-09T12:02:49.464Z,4.30
2023-05-09T12:03:49.549Z,4.20
2023-05-09T12:04:49.682Z,4.80
2023-05-09T12:05:49.882Z,3.80
2023-05-09T12:06:50.000Z,4.20
2023-05-09T12:07:50.226Z,3.70
2023-05-09T12:08:50.357Z,4.10
2023-05-09T12:09:50.551Z,5.20
2023-05-09T12:10:50.710Z,6.70
2023-05-09T12:11:50.856Z,4.00
2023-05-09T12:12:51.092Z,5.50
2023-05-09T12:13:51.216Z,4.60
2023-05-09T12:14:51.931Z,4.20
2023-05-09T12:15:51.615Z,3.70
2023-05-09T12:16:51.731Z,4.60
2023-05-09T12:17:52.081Z,4.20
2023-05-09T12:18:52.078Z,4.50
2023-05-09T12:19:52.259Z,4.80
2023-05-09T12:20:52.392Z,4.00
2023-05-09T12:21:52.562Z,4.80
2023-05-09T12:22:52.729Z,4.10
2023-05-09T12:23:53.506Z,4.70
2023-05-09T12:24:53.093Z,3.80
2023-05-09T12:25:53.215Z,3.80
2023-05-09T12:26:53.383Z,3.50
2023-05-09T12:27:53.542Z,4.40
2023-05-09T12:28:53.711Z,4.40
2023-05-09T12:29:55.101Z,3.80
2023-05-09T12:30:54.057Z,3.80
2023-05-09T12:31:54.273Z,4.30
2023-05-09T12:32:54.427Z,5.00
2023-05-09T12:33:54.566Z,3.80
2023-05-09T12:34:54.756Z,4.50
2023-05-09T12:35:54.903Z,5.60
2023-05-09T12:36:55.082Z,6.10
2023-05-09T12:37:55.267Z,4.90
2023-05-09T12:38:55.543Z,3.90
2023-05-09T12:39:55.619Z,4.90
2023-05-09T12:40:55.770Z,5.10
2023-05-09T12:42:01.587Z,4.60
2023-05-09T12:42:57.083Z,5.30
2023-05-09T12:43:56.316Z,4.80
2023-05-09T12:44:56.457Z,3.90
2023-05-09T12:45:56.581Z,4.90
2023-05-09T12:46:56.803Z,4.40
2023-05-09T12:47:56.961Z,4.70
2023-05-09T12:48:57.152Z,4.10
2023-05-09T12:49:57.291Z,5.10
2023-05-09T12:50:57.468Z,4.30
2023-05-09T12:51:57.612Z,4.60
2023-05-09T12:53:03.449Z,4.80
2023-05-09T12:53:58.989Z,4.50
2023-05-09T12:54:58.118Z,4.90
2023-05-09T12:55:58.283Z,4.50
2023-05-09T12:56:58.481Z,4.50
2023-05-09T12:57:58.632Z,4.50
2023-05-09T12:58:58.825Z,3.60
2023-05-09T12:59:58.965Z,4.10
2023-05-09T13:00:59.215Z,3.90
2023-05-09T13:01:59.414Z,4.60
2023-05-09T13:02:59.639Z,5.50
2023-05-09T13:03:59.650Z,4.30
2023-05-09T13:04:59.818Z,5.00
2023-05-09T13:05:59.969Z,4.70
2023-05-09T13:07:00.334Z,3.10
2023-05-09T13:08:00.375Z,4.40
2023-05-09T13:09:00.492Z,4.40
2023-05-09T13:10:00.670Z,5.50
2023-05-09T13:11:14.955Z,4.50
2023-05-09T13:12:02.013Z,3.80
2023-05-09T13:13:01.256Z,5.20
2023-05-09T13:14:01.363Z,4.90
2023-05-09T13:15:01.609Z,5.30
2023-05-09T13:16:01.781Z,4.40
2023-05-09T13:17:02.001Z,4.10
2023-05-09T13:18:02.127Z,4.10
2023-05-09T13:19:02.283Z,4.30
2023-05-09T13:20:02.459Z,4.20
2023-05-09T13:21:02.698Z,5.00